createdAt,value
2018-03-07T00:02:05.359Z,60.67
2018-03-07T00:04:34.454Z,59.43
2018-03-07T00:07:02.070Z,58.93
2018-03-07T00:09:29.625Z,58.97
2018-03-07T00:11:57.154Z,59.23
2018-03-07T00:14:26.421Z,61.53
2018-03-07T00:16:54.792Z,59.50
2018-03-07T00:19:22.962Z,63.07
2018-03-07T00:21:50.515Z,60.53
2018-03-07T00:24:18.056Z,61.07
2018-03-07T00:26:45.653Z,61.53
2018-03-07T00:29:13.728Z,58.17
2018-03-07T00:31:41.284Z,61.87
2018-03-07T00:34:08.875Z,56.97
2018-03-07T00:36:36.416Z,60.97
2018-03-07T00:39:04.052Z,60.30
2018-03-07T00:41:31.606Z,59.37
2018-03-07T00:43:59.150Z,61.00
2018-03-07T00:46:27.039Z,61.70
2018-03-07T00:48:54.695Z,62.20
2018-03-07T00:51:22.254Z,64.13
2018-03-07T00:53:49.870Z,62.07
2018-03-07T00:56:18.442Z,62.07
2018-03-07T00:58:45.976Z,63.37
2018-03-07T01:01:13.571Z,63.57
2018-03-07T01:03:41.128Z,64.10
2018-03-07T01:06:08.714Z,62.23
2018-03-07T01:08:36.307Z,65.30
2018-03-07T01:11:03.869Z,67.93
2018-03-07T01:13:31.428Z,67.53
2018-03-07T01:15:58.983Z,65.50
2018-03-07T01:18:26.587Z,63.23
2018-03-07T01:20:55.273Z,65.10
2018-03-07T01:23:22.881Z,64.03
2018-03-07T01:25:50.455Z,63.37
2018-03-07T01:28:18.009Z,64.20
2018-03-07T01:30:45.555Z,64.30
2018-03-07T01:33:13.131Z,63.80
2018-03-07T01:35:41.242Z,66.10
2018-03-07T01:38:08.846Z,66.07
2018-03-07T01:40:36.377Z,67.03
2018-03-07T01:43:04.743Z,65.57
2018-03-07T01:45:32.306Z,66.13
2018-03-07T01:47:59.840Z,66.27
2018-03-07T01:50:27.432Z,66.90
2018-03-07T01:52:55.729Z,69.37
2018-03-07T01:55:23.255Z,67.67
2018-03-07T01:57:50.842Z,69.17
2018-03-07T02:00:19.144Z,68.20
2018-03-07T02:02:47.359Z,67.13
2018-03-07T02:05:14.896Z,66.60
2018-03-07T02:07:42.472Z,66.57
2018-03-07T02:10:10.627Z,65.53
2018-03-07T02:12:38.223Z,67.37
2018-03-07T02:15:08.901Z,66.83
2018-03-07T02:17:37.315Z,67.07
2018-03-07T02:20:06.371Z,69.83
2018-03-07T02:22:33.994Z,68.67
2018-03-07T02:25:02.341Z,70.70
2018-03-07T02:27:29.895Z,67.00
2018-03-07T02:29:57.478Z,68.77
2018-03-07T02:32:25.434Z,71.73
2018-03-07T02:34:53.010Z,67.60
2018-03-07T02:37:20.547Z,69.00
2018-03-07T02:39:48.110Z,68.17
2018-03-07T02:42:15.714Z,67.90
2018-03-07T02:44:43.281Z,69.47
2018-03-07T02:47:10.857Z,66.10
2018-03-07T02:49:38.415Z,69.60
2018-03-07T02:52:06.452Z,67.17
2018-03-07T02:54:34.807Z,64.07
2018-03-07T02:57:02.743Z,64.73
2018-03-07T02:59:31.046Z,66.63
2018-03-07T03:02:00.460Z,65.20
2018-03-07T03:04:28.058Z,67.83
2018-03-07T03:06:55.646Z,70.90
2018-03-07T03:09:23.242Z,65.60
2018-03-07T03:11:50.848Z,68.60
2018-03-07T03:14:18.451Z,68.00
2018-03-07T03:16:45.980Z,66.83
2018-03-07T03:19:13.559Z,67.00
2018-03-07T03:21:41.112Z,69.13
2018-03-07T03:24:08.684Z,68.87
2018-03-07T03:26:36.547Z,67.27
2018-03-07T03:29:04.091Z,68.47
2018-03-07T03:31:31.679Z,68.60
2018-03-07T03:33:59.326Z,66.10
2018-03-07T03:36:28.026Z,67.30
2018-03-07T03:38:55.620Z,67.27
2018-03-07T03:41:23.203Z,67.60
2018-03-07T03:43:50.753Z,69.50
2018-03-07T03:46:19.068Z,66.53
2018-03-07T03:48:46.601Z,68.73
2018-03-07T03:51:14.213Z,70.20
2018-03-07T03:53:43.257Z,64.00
2018-03-07T03:56:10.791Z,64.27
2018-03-07T03:58:38.427Z,64.40
2018-03-07T04:01:06.662Z,62.90
2018-03-07T04:03:34.234Z,65.13
2018-03-07T04:06:01.855Z,67.17
2018-03-07T04:08:30.155Z,65.10
2018-03-07T04:10:57.757Z,64.00
2018-03-07T04:13:25.332Z,64.40
2018-03-07T04:15:52.899Z,64.50
2018-03-07T04:18:20.441Z,64.17
2018-03-07T04:20:48.801Z,63.87
2018-03-07T04:23:16.356Z,63.23
2018-03-07T04:25:43.923Z,59.53
2018-03-07T04:28:11.459Z,58.87
2018-03-07T04:30:39.045Z,61.30
2018-03-07T04:33:07.323Z,62.03
2018-03-07T04:35:34.882Z,58.83
2018-03-07T04:38:02.461Z,62.20
2018-03-07T04:40:30.007Z,62.73
2018-03-07T04:42:58.184Z,60.03
2018-03-07T04:45:25.770Z,60.50
2018-03-07T04:47:54.295Z,61.73
2018-03-07T04:50:21.863Z,59.70
2018-03-07T04:52:49.447Z,59.93
2018-03-07T04:55:17.557Z,60.80
2018-03-07T04:57:45.123Z,59.67
2018-03-07T05:00:12.764Z,60.00
2018-03-07T05:02:40.359Z,59.63
2018-03-07T05:05:09.392Z,59.63
2018-03-07T05:07:37.306Z,60.30
2018-03-07T05:10:05.923Z,62.70
2018-03-07T05:12:33.522Z,58.07
2018-03-07T05:15:01.087Z,60.30
2018-03-07T05:17:29.588Z,59.67
2018-03-07T05:19:57.878Z,64.07
2018-03-07T05:22:26.208Z,58.90
2018-03-07T05:24:53.793Z,60.57
2018-03-07T05:27:22.129Z,58.30
2018-03-07T05:29:49.716Z,57.50
2018-03-07T05:32:17.269Z,57.17
2018-03-07T05:34:44.826Z,58.40
2018-03-07T05:37:13.304Z,55.17
2018-03-07T05:39:40.848Z,59.23
2018-03-07T05:42:08.508Z,57.50
2018-03-07T05:44:36.046Z,58.10
2018-03-07T05:47:03.614Z,56.27
2018-03-07T05:49:31.213Z,59.23
2018-03-07T05:51:59.536Z,57.60
2018-03-07T05:54:27.861Z,55.97
2018-03-07T05:56:55.446Z,56.87
2018-03-07T05:59:24.000Z,58.27
2018-03-07T06:01:51.558Z,56.17
2018-03-07T06:04:19.101Z,56.93
2018-03-07T06:06:46.683Z,57.00
2018-03-07T06:09:14.237Z,54.40
2018-03-07T06:11:42.256Z,58.87
2018-03-07T06:14:10.741Z,58.47
2018-03-07T06:16:39.124Z,55.90
2018-03-07T06:19:07.510Z,54.53
2018-03-07T06:21:35.065Z,58.07
2018-03-07T06:24:02.615Z,53.90
2018-03-07T06:26:31.252Z,51.67
2018-03-07T06:28:58.855Z,49.17
2018-03-07T06:31:26.396Z,53.23
2018-03-07T06:33:54.024Z,51.87
2018-03-07T06:36:21.603Z,52.13
2018-03-07T06:38:49.132Z,53.53
2018-03-07T06:41:16.770Z,53.30
2018-03-07T06:43:44.345Z,54.53
2018-03-07T06:46:12.726Z,52.90
2018-03-07T06:48:40.345Z,53.10
2018-03-07T06:51:08.408Z,53.93
2018-03-07T06:53:36.803Z,56.63
2018-03-07T06:56:05.152Z,55.17
2018-03-07T06:58:33.563Z,55.73
2018-03-07T07:01:01.221Z,52.47
2018-03-07T07:03:29.447Z,54.53
2018-03-07T07:05:56.994Z,54.23
2018-03-07T07:08:24.570Z,53.03
2018-03-07T07:10:52.117Z,55.63
2018-03-07T07:13:19.649Z,51.20
2018-03-07T07:15:47.247Z,52.50
2018-03-07T07:18:14.808Z,52.07
2018-03-07T07:20:42.832Z,51.13
2018-03-07T07:23:10.436Z,51.87
2018-03-07T07:25:38.024Z,50.30
2018-03-07T07:28:05.649Z,50.90
2018-03-07T07:30:33.458Z,49.80
2018-03-07T07:33:01.015Z,50.20
2018-03-07T07:35:28.592Z,61.33
2018-03-07T07:37:56.196Z,51.70
2018-03-07T07:40:24.477Z,50.80
2018-03-07T07:42:52.046Z,51.23
2018-03-07T07:45:19.648Z,51.50
2018-03-07T07:47:47.358Z,54.30
2018-03-07T07:50:14.926Z,53.13
2018-03-07T07:52:42.536Z,54.10
2018-03-07T07:55:10.981Z,54.30
2018-03-07T07:57:38.532Z,52.33
2018-03-07T08:00:07.150Z,52.97
2018-03-07T08:02:34.737Z,54.87
2018-03-07T08:05:02.364Z,55.03
2018-03-07T08:07:30.346Z,53.20
2018-03-07T08:09:58.024Z,59.50
2018-03-07T08:12:25.881Z,54.37
2018-03-07T08:14:53.488Z,56.43
2018-03-07T08:17:21.071Z,58.60
2018-03-07T08:19:48.658Z,52.60
2018-03-07T08:22:16.220Z,55.10
2018-03-07T08:24:44.599Z,56.10
2018-03-07T08:27:12.184Z,57.70
2018-03-07T08:29:40.551Z,57.73
2018-03-07T08:32:08.575Z,71.20
2018-03-07T08:34:36.124Z,80.23
2018-03-07T08:37:03.753Z,74.77
2018-03-07T08:39:31.794Z,64.20
2018-03-07T08:54:54.603Z,61.50
2018-03-07T08:57:22.248Z,82.43
2018-03-07T08:59:49.835Z,77.63
2018-03-07T09:02:17.454Z,81.23
2018-03-07T09:04:45.001Z,68.20
2018-03-07T09:07:12.934Z,67.60
2018-03-07T09:09:40.525Z,61.90
2018-03-07T09:12:08.955Z,59.80
2018-03-07T09:14:36.529Z,58.83
2018-03-07T09:17:04.137Z,57.60
2018-03-07T09:19:32.881Z,56.07
2018-03-07T09:22:00.463Z,58.90
2018-03-07T09:24:28.026Z,57.23
2018-03-07T09:26:55.636Z,58.37
2018-03-07T09:29:23.179Z,57.70
2018-03-07T09:31:50.773Z,54.40
2018-03-07T09:34:18.309Z,52.70
2018-03-07T09:36:45.848Z,54.63
2018-03-07T09:39:14.763Z,52.13
2018-03-07T09:41:42.319Z,51.87
2018-03-07T09:44:10.244Z,51.17
2018-03-07T09:46:38.285Z,49.93
2018-03-07T09:49:06.311Z,50.30
2018-03-07T09:51:33.884Z,45.53
2018-03-07T09:54:01.654Z,45.67
2018-03-07T09:56:29.302Z,48.83
2018-03-07T09:58:57.768Z,51.70
2018-03-07T10:01:26.089Z,55.13
2018-03-07T10:03:53.766Z,53.80
2018-03-07T10:06:21.753Z,53.30
2018-03-07T10:08:50.354Z,52.97
2018-03-07T10:11:17.895Z,49.60
2018-03-07T10:13:46.557Z,50.20
2018-03-07T10:16:14.101Z,48.03
2018-03-07T10:18:41.646Z,50.20
2018-03-07T10:21:10.178Z,49.83
2018-03-07T10:23:37.708Z,50.53
2018-03-07T10:26:05.598Z,50.23
2018-03-07T10:28:34.918Z,49.20
2018-03-07T10:31:02.504Z,47.93
2018-03-07T10:33:30.843Z,50.73
2018-03-07T10:35:59.550Z,47.57
2018-03-07T10:38:27.171Z,46.10
2018-03-07T10:40:54.715Z,47.63
2018-03-07T10:43:24.485Z,43.93
2018-03-07T10:45:52.108Z,40.90
2018-03-07T10:48:19.632Z,40.30
2018-03-07T10:50:47.881Z,38.47
2018-03-07T10:53:15.451Z,37.60
2018-03-07T10:55:43.003Z,38.00
2018-03-07T10:58:10.626Z,35.20
2018-03-07T11:00:39.310Z,35.37
2018-03-07T11:03:08.718Z,35.77
2018-03-07T11:05:36.626Z,33.63
2018-03-07T11:08:04.244Z,30.57
2018-03-07T11:10:31.830Z,32.13
2018-03-07T11:12:59.365Z,31.67
2018-03-07T11:15:26.973Z,29.10
2018-03-07T11:17:54.509Z,31.20
2018-03-07T11:20:22.066Z,32.20
2018-03-07T11:22:49.656Z,32.67
2018-03-07T11:25:17.660Z,29.97
2018-03-07T11:27:45.214Z,32.47
2018-03-07T11:30:12.813Z,28.27
2018-03-07T11:32:40.412Z,27.20
2018-03-07T11:35:09.877Z,29.07
2018-03-07T11:37:37.420Z,31.47
2018-03-07T11:40:06.313Z,29.13
2018-03-07T11:42:34.867Z,21.30
2018-03-07T11:45:04.158Z,17.40
2018-03-07T11:47:32.234Z,15.23
2018-03-07T11:49:59.801Z,14.80
2018-03-07T11:52:27.452Z,15.50
2018-03-07T11:54:56.768Z,13.90
2018-03-07T11:57:24.315Z,14.70
2018-03-07T11:59:51.906Z,20.53
2018-03-07T12:02:20.076Z,12.60
2018-03-07T12:04:47.625Z,11.67
2018-03-07T12:07:15.975Z,13.00
2018-03-07T12:09:44.331Z,14.83
2018-03-07T12:12:11.881Z,11.10
2018-03-07T12:14:39.965Z,10.90
2018-03-07T12:17:09.865Z,10.40
2018-03-07T12:19:37.387Z,10.90
2018-03-07T12:22:05.575Z,10.60
2018-03-07T12:24:33.107Z,10.10
2018-03-07T12:27:01.456Z,9.27
2018-03-07T12:29:29.744Z,10.17
2018-03-07T12:31:57.305Z,7.20
2018-03-07T12:34:24.891Z,7.93
2018-03-07T12:36:53.242Z,6.40
2018-03-07T12:39:20.790Z,7.10
2018-03-07T12:41:49.144Z,10.57
2018-03-07T12:44:17.207Z,5.70
2018-03-07T12:46:44.754Z,6.30
2018-03-07T12:49:12.303Z,11.00
2018-03-07T12:51:39.915Z,5.40
2018-03-07T13:07:02.728Z,4.93
2018-03-07T13:09:30.267Z,5.23
2018-03-07T13:11:57.817Z,5.67
2018-03-07T13:14:25.603Z,7.00
2018-03-07T13:16:54.037Z,6.87
2018-03-07T13:19:22.352Z,7.47
2018-03-07T13:21:50.185Z,4.80
2018-03-07T13:24:18.532Z,4.90
2018-03-07T13:26:46.146Z,4.03
2018-03-07T13:29:13.696Z,3.70
2018-03-07T13:31:41.361Z,3.87
2018-03-07T13:34:08.912Z,5.00
2018-03-07T13:36:36.937Z,3.80
2018-03-07T13:39:04.583Z,4.03
2018-03-07T13:41:32.953Z,3.50
2018-03-07T13:44:00.535Z,3.07
2018-03-07T13:46:28.277Z,2.77
2018-03-07T13:48:56.464Z,3.17
2018-03-07T13:51:23.993Z,3.10
2018-03-07T13:53:51.592Z,2.83
2018-03-07T13:56:19.170Z,2.80
2018-03-07T13:58:47.704Z,3.13
2018-03-07T14:01:15.282Z,2.93
2018-03-07T14:03:42.814Z,4.00
2018-03-07T14:06:10.440Z,4.20
2018-03-07T14:08:39.500Z,3.00
2018-03-07T14:11:10.216Z,3.53
2018-03-07T14:13:38.144Z,6.63
2018-03-07T14:16:05.725Z,5.07
2018-03-07T14:18:34.605Z,4.60
2018-03-07T14:21:02.139Z,4.17
2018-03-07T14:23:30.000Z,3.70
2018-03-07T14:25:58.313Z,3.60
2018-03-07T14:28:26.607Z,2.93
2018-03-07T14:30:54.202Z,4.03
2018-03-07T14:33:21.741Z,8.10
2018-03-07T14:35:49.369Z,14.23
2018-03-07T14:38:17.656Z,19.40
2018-03-07T14:40:47.736Z,29.97
2018-03-07T14:43:15.324Z,16.67
2018-03-07T14:45:42.855Z,30.90
2018-03-07T14:48:10.584Z,10.27
2018-03-07T14:50:39.047Z,5.20
2018-03-07T14:53:08.456Z,4.20
2018-03-07T14:55:36.038Z,4.50
2018-03-07T14:58:03.819Z,6.00
2018-03-07T15:00:31.392Z,4.70
2018-03-07T15:02:59.746Z,4.53
2018-03-07T15:05:27.368Z,5.63
2018-03-07T15:07:55.918Z,4.60
2018-03-07T15:10:23.474Z,4.90
2018-03-07T15:12:51.104Z,5.43
2018-03-07T15:15:18.630Z,5.67
2018-03-07T15:17:46.935Z,5.70
2018-03-07T15:20:14.512Z,5.63
2018-03-07T15:22:42.362Z,6.03
2018-03-07T15:25:10.535Z,5.40
2018-03-07T15:27:38.153Z,6.10
2018-03-07T15:30:08.277Z,7.10
2018-03-07T15:32:35.806Z,6.43
2018-03-07T15:35:04.460Z,6.40
2018-03-07T15:37:32.248Z,5.50
2018-03-07T15:40:00.440Z,5.73
2018-03-07T15:42:28.731Z,6.27
2018-03-07T15:44:56.456Z,7.07
2018-03-07T15:47:23.992Z,6.67
2018-03-07T15:49:51.547Z,7.30
2018-03-07T15:52:19.339Z,7.00
2018-03-07T15:54:46.875Z,6.67
2018-03-07T15:57:14.430Z,6.80
2018-03-07T15:59:42.060Z,8.73
2018-03-07T16:02:11.103Z,6.80
2018-03-07T16:04:38.645Z,8.30
2018-03-07T16:07:06.635Z,7.37
2018-03-07T16:09:34.176Z,8.13
2018-03-07T16:12:01.700Z,9.60
2018-03-07T16:14:29.306Z,7.70
2018-03-07T16:16:57.084Z,8.37
2018-03-07T16:19:24.607Z,10.43
2018-03-07T16:21:52.146Z,12.33
2018-03-07T16:24:20.378Z,9.50
2018-03-07T16:26:47.907Z,11.70
2018-03-07T16:29:15.423Z,10.17
2018-03-07T16:31:43.030Z,9.80
2018-03-07T16:34:10.604Z,9.53
2018-03-07T16:36:38.189Z,9.70
2018-03-07T16:39:05.865Z,10.03
2018-03-07T16:41:33.408Z,9.87
2018-03-07T16:44:01.327Z,9.50
2018-03-07T16:46:29.855Z,11.53
2018-03-07T16:48:57.640Z,13.80
2018-03-07T16:51:25.873Z,14.57
2018-03-07T16:54:07.774Z,10.53
2018-03-07T16:56:36.318Z,9.67
2018-03-07T16:59:05.351Z,9.57
2018-03-07T17:01:35.475Z,9.17
2018-03-07T17:04:03.125Z,13.00
2018-03-07T17:06:31.624Z,12.33
2018-03-07T17:08:59.188Z,12.60
2018-03-07T17:11:26.740Z,18.73
2018-03-07T17:13:54.971Z,22.40
2018-03-07T17:16:23.295Z,25.73
2018-03-07T17:18:50.864Z,30.40
2018-03-07T17:21:19.842Z,41.63
2018-03-07T17:23:47.419Z,48.80
2018-03-07T17:26:15.039Z,53.60
2018-03-07T17:28:42.689Z,77.87
2018-03-07T17:31:11.022Z,99.93
2018-03-07T17:33:39.000Z,77.00
2018-03-07T17:36:06.998Z,51.70
2018-03-07T17:38:34.547Z,40.63
2018-03-07T17:41:02.107Z,40.50
2018-03-07T17:43:29.716Z,39.33
2018-03-07T17:45:57.358Z,59.93
2018-03-07T17:48:26.551Z,72.50
2018-03-07T17:50:54.940Z,45.77
2018-03-07T17:53:24.182Z,35.37
2018-03-07T17:55:52.574Z,26.10
2018-03-07T17:58:20.208Z,24.17
2018-03-07T18:00:48.860Z,23.90
2018-03-07T18:03:16.417Z,22.27
2018-03-07T18:05:44.010Z,23.03
2018-03-07T18:08:19.047Z,21.77
2018-03-07T18:10:46.603Z,22.17
2018-03-07T18:13:14.129Z,22.80
2018-03-07T18:15:42.477Z,19.87
2018-03-07T18:18:10.020Z,17.83
2018-03-07T18:20:38.895Z,16.67
2018-03-07T18:23:06.993Z,19.70
2018-03-07T18:25:34.556Z,17.77
2018-03-07T18:28:02.206Z,16.17
2018-03-07T18:30:29.752Z,23.73
2018-03-07T18:32:57.359Z,41.03
2018-03-07T18:35:24.882Z,24.20
2018-03-07T18:37:52.508Z,16.03
2018-03-07T18:40:20.032Z,15.60
2018-03-07T18:42:47.672Z,15.03
2018-03-07T18:45:15.253Z,15.83
2018-03-07T18:47:43.730Z,19.07
2018-03-07T18:50:11.262Z,19.03
2018-03-07T18:52:39.841Z,17.67
2018-03-07T18:55:08.203Z,20.50
2018-03-07T18:57:35.777Z,22.00
2018-03-07T19:00:04.173Z,22.97
2018-03-07T19:02:32.243Z,21.13
2018-03-07T19:04:59.790Z,20.67
2018-03-07T19:07:27.378Z,21.13
2018-03-07T19:09:54.899Z,20.10
2018-03-07T19:12:22.501Z,20.73
2018-03-07T19:14:50.115Z,18.50
2018-03-07T19:17:17.682Z,18.10
2018-03-07T19:19:45.859Z,17.90
2018-03-07T19:22:14.225Z,16.87
2018-03-07T19:24:41.790Z,19.57
2018-03-07T19:27:09.374Z,20.60
2018-03-07T19:29:37.521Z,21.53
2018-03-07T19:32:05.135Z,19.53
2018-03-07T19:34:32.871Z,17.50
2018-03-07T19:37:00.759Z,15.50
2018-03-07T19:39:28.319Z,15.70
2018-03-07T19:41:55.867Z,16.13
2018-03-07T19:44:23.649Z,16.67
2018-03-07T19:46:51.368Z,16.00
2018-03-07T19:49:18.934Z,16.37
2018-03-07T19:51:47.663Z,15.80
2018-03-07T19:54:16.485Z,16.00
2018-03-07T19:56:44.951Z,19.00
2018-03-07T19:59:14.454Z,18.67
2018-03-07T20:01:43.028Z,18.27
2018-03-07T20:04:11.066Z,17.50
2018-03-07T20:06:47.421Z,19.33
2018-03-07T20:09:17.546Z,20.20
2018-03-07T20:11:46.316Z,23.70
2018-03-07T20:14:15.463Z,21.23
2018-03-07T20:16:45.085Z,20.30
2018-03-07T20:19:14.825Z,21.07
2018-03-07T20:21:43.700Z,20.20
2018-03-07T20:24:12.097Z,22.87
2018-03-07T20:26:43.208Z,24.67
2018-03-07T20:29:12.908Z,23.97
2018-03-07T20:31:41.465Z,23.20
2018-03-07T20:34:09.030Z,25.50
2018-03-07T20:36:37.653Z,26.30
2018-03-07T20:39:07.045Z,24.53
2018-03-07T20:41:37.622Z,24.47
2018-03-07T20:44:06.164Z,20.87
2018-03-07T20:46:35.883Z,19.90
2018-03-07T20:49:06.071Z,18.03
2018-03-07T20:51:34.767Z,18.30
2018-03-07T20:54:02.886Z,18.27
2018-03-07T20:56:32.533Z,19.80
2018-03-07T20:59:01.133Z,19.83
2018-03-07T21:01:29.853Z,19.83
2018-03-07T21:03:59.337Z,19.97
2018-03-07T21:06:28.974Z,18.93
2018-03-07T21:08:57.799Z,19.67
2018-03-07T21:11:26.950Z,20.87
2018-03-07T21:13:55.634Z,22.50
2018-03-07T21:16:24.453Z,22.37
2018-03-07T21:18:53.278Z,19.50
2018-03-07T21:21:21.740Z,19.83
2018-03-07T21:23:50.189Z,19.00
2018-03-07T21:26:19.628Z,20.00
2018-03-07T21:28:48.394Z,20.00
2018-03-07T21:31:17.320Z,18.37
2018-03-07T21:33:45.746Z,18.20
2018-03-07T21:36:14.067Z,19.07
2018-03-07T21:38:43.911Z,19.10
2018-03-07T21:41:12.582Z,18.50
2018-03-07T21:43:41.495Z,18.37
2018-03-07T21:46:09.655Z,17.03
2018-03-07T21:48:39.594Z,18.43
2018-03-07T21:51:11.357Z,18.47
2018-03-07T21:53:41.500Z,17.10
2018-03-07T21:56:09.073Z,16.90
2018-03-07T21:58:38.049Z,16.57
2018-03-07T22:01:06.592Z,16.77
2018-03-07T22:03:35.014Z,15.93
2018-03-07T22:06:04.505Z,16.37
2018-03-07T22:08:35.868Z,16.33
2018-03-07T22:11:05.051Z,17.20
2018-03-07T22:13:33.728Z,19.53
2018-03-07T22:16:02.269Z,19.90
2018-03-07T22:18:31.120Z,16.80
2018-03-07T22:20:59.994Z,21.20
2018-03-07T22:23:29.020Z,19.33
2018-03-07T22:25:58.893Z,21.23
2018-03-07T22:28:27.397Z,21.10
2018-03-07T22:30:56.117Z,18.27
2018-03-07T22:33:24.861Z,18.50
2018-03-07T22:35:54.139Z,18.10
2018-03-07T22:38:22.652Z,18.03
2018-03-07T22:40:51.270Z,19.73
2018-03-07T22:43:21.382Z,18.20
2018-03-07T22:45:50.445Z,16.50
2018-03-07T22:48:19.680Z,18.73
2018-03-07T22:50:48.763Z,17.90
2018-03-07T22:53:18.341Z,17.77
2018-03-07T22:55:47.445Z,16.33
2018-03-07T22:58:15.310Z,16.03
2018-03-07T23:00:48.369Z,15.27
2018-03-07T23:03:19.145Z,13.50
2018-03-07T23:05:49.458Z,13.17
2018-03-07T23:08:18.335Z,13.07
2018-03-07T23:10:47.594Z,14.10
2018-03-07T23:13:17.845Z,12.73
2018-03-07T23:15:46.985Z,12.07
2018-03-07T23:18:15.946Z,12.40
2018-03-07T23:20:46.399Z,12.27
2018-03-07T23:23:15.365Z,11.10
2018-03-07T23:25:45.416Z,12.17
2018-03-07T23:28:14.277Z,11.40
2018-03-07T23:30:42.722Z,9.77
2018-03-07T23:33:11.224Z,9.63
2018-03-07T23:35:40.261Z,8.67
2018-03-07T23:38:07.862Z,8.70
2018-03-07T23:40:37.044Z,8.50
2018-03-07T23:43:07.456Z,7.60
2018-03-07T23:45:36.284Z,7.67
2018-03-07T23:48:06.117Z,6.77
2018-03-07T23:50:34.972Z,6.73
2018-03-07T23:53:04.742Z,6.27
2018-03-07T23:55:34.350Z,6.87
2018-03-07T23:58:04.078Z,7.30
